Time;durP1;ratioP1;P1;durP2;ratioP2;P2;SDS_P1;SDS_P2;PMS_P1;PMS_P2;Temp;Humidity;BMP_temperature;BMP_pressure;BME280_temperature;BME280_humidity;BME280_pressure;Samples;Min_cycle;Max_cycle;Signal;HPM_P1;HPM_P2
2022/02/16 00:00:09;;;;;;;21.15;12.40;;;;;;;-1.72;100.00;99935.72;1761597;81;21010;-62
2022/02/16 00:02:39;;;;;;;22.22;11.93;;;;;;;-1.71;100.00;99933.38;1756251;81;21768;-63
2022/02/16 00:05:11;;;;;;;19.17;12.05;;;;;;;-1.72;100.00;99922.38;1763657;81;20975;-62
2022/02/16 00:07:43;;;;;;;24.90;12.00;;;;;;;-1.73;100.00;99923.88;1757080;81;21062;-62
2022/02/16 00:10:15;;;;;;;25.43;12.68;;;;;;;-1.76;100.00;99918.93;1753959;81;20966;-62
2022/02/16 00:12:43;;;;;;;20.52;11.28;;;;;;;-1.79;100.00;99922.81;1761372;81;21101;-63
2022/02/16 00:15:13;;;;;;;24.92;12.60;;;;;;;-1.80;100.00;99916.31;1760946;81;21819;-62
2022/02/16 00:17:41;;;;;;;18.77;11.15;;;;;;;-1.81;100.00;99912.02;1766557;81;21054;-63
2022/02/16 00:20:10;;;;;;;20.75;11.10;;;;;;;-1.83;100.00;99903.34;1767806;81;20976;-63
2022/02/16 00:22:36;;;;;;;23.60;11.80;;;;;;;-1.85;100.00;99904.05;1754123;81;21021;-62
2022/02/16 00:25:06;;;;;;;19.92;10.80;;;;;;;-1.87;100.00;99901.56;1772720;81;20993;-63
2022/02/16 00:27:32;;;;;;;20.40;11.80;;;;;;;-1.88;100.00;99893.77;1760531;81;21412;-63
2022/02/16 00:29:59;;;;;;;;;;;;;;;-1.89;100.00;99901.44;1772044;80;21055;-63
2022/02/16 00:32:25;;;;;;;24.10;12.60;;;;;;;-1.88;100.00;99902.60;1785428;80;20116;-63
2022/02/16 00:34:52;;;;;;;20.95;12.88;;;;;;;-1.94;100.00;99901.99;1779705;80;21019;-63
2022/02/16 00:37:19;;;;;;;20.45;12.33;;;;;;;-1.94;100.00;99907.83;1775547;80;21062;-63
2022/02/16 00:39:46;;;;;;;19.75;11.83;;;;;;;-1.93;100.00;99910.33;1778262;80;21089;-62
2022/02/16 00:42:12;;;;;;;16.35;9.00;;;;;;;-1.95;100.00;99899.03;1763270;80;21038;-63
2022/02/16 00:44:40;;;;;;;16.48;10.28;;;;;;;-1.96;100.00;99901.37;1771901;80;20972;-62
2022/02/16 00:47:06;;;;;;;15.98;10.00;;;;;;;-1.97;100.00;99904.20;1750994;80;21007;-63
2022/02/16 00:49:33;;;;;;;15.53;8.93;;;;;;;-2.01;100.00;99895.75;1737483;81;21030;-63
2022/02/16 00:52:00;;;;;;;11.78;8.45;;;;;;;-2.03;100.00;99901.80;1781367;80;21003;-63
2022/02/16 00:55:37;;;;;;;16.95;10.28;;;;;;;-2.03;100.00;99887.13;1802023;78;22640;-62
2022/02/16 00:58:05;;;;;;;14.73;8.95;;;;;;;-2.09;100.00;99886.55;1742276;80;21588;-61
2022/02/16 01:00:33;;;;;;;18.77;10.08;;;;;;;-2.12;100.00;99885.55;1693623;83;21027;-62
2022/02/16 01:03:00;;;;;;;16.87;9.53;;;;;;;-2.15;100.00;99875.27;1678113;84;21599;-62
2022/02/16 01:05:26;;;;;;;18.10;9.35;;;;;;;-2.18;100.00;99889.81;1680754;85;21597;-62
2022/02/16 01:07:53;;;;;;;16.70;9.53;;;;;;;-2.18;100.00;99889.81;1682935;85;21592;-62
2022/02/16 01:10:20;;;;;;;15.50;9.50;;;;;;;-2.18;100.00;99886.31;1697439;83;21026;-62
2022/02/16 01:12:50;;;;;;;16.07;9.73;;;;;;;-2.21;100.00;99883.52;1691374;83;21074;-62
2022/02/16 01:15:17;;;;;;;17.20;9.93;;;;;;;-2.21;100.00;99884.02;1682480;84;21563;-61
2022/02/16 01:17:45;;;;;;;19.77;10.28;;;;;;;-2.20;100.00;99883.02;1685015;84;21069;-62
2022/02/16 01:20:13;;;;;;;16.45;10.32;;;;;;;-2.22;100.00;99879.19;1679335;84;21101;-62
2022/02/16 01:22:41;;;;;;;20.62;10.58;;;;;;;-2.25;100.00;99874.23;1679040;84;21152;-62
2022/02/16 01:25:12;;;;;;;19.25;11.48;;;;;;;-2.28;100.00;99871.11;1698004;83;21077;-61
2022/02/16 01:27:41;;;;;;;19.00;11.35;;;;;;;-2.29;100.00;99861.45;1700141;83;21042;-62
2022/02/16 01:30:09;;;;;;;19.48;10.75;;;;;;;-2.27;100.00;99858.11;1699366;83;21070;-62
2022/02/16 01:32:40;;;;;;;19.70;11.40;;;;;;;-2.27;100.00;99843.44;1692137;83;21101;-62
2022/02/16 01:35:09;;;;;;;18.67;11.57;;;;;;;-2.28;100.00;99845.78;1698444;83;21022;-62
2022/02/16 01:37:36;;;;;;;20.25;10.18;;;;;;;-2.31;100.00;99838.16;1705548;83;21459;-62
2022/02/16 01:40:04;;;;;;;18.75;10.63;;;;;;;-2.34;100.00;99842.53;1690494;84;21037;-62
2022/02/16 01:42:34;;;;;;;18.70;10.72;;;;;;;-2.34;100.00;99831.37;1691835;83;21054;-61
2022/02/16 01:45:04;;;;;;;17.77;10.43;;;;;;;-2.34;100.00;99838.03;1697210;83;21065;-62
2022/02/16 01:47:31;;;;;;;19.45;11.35;;;;;;;-2.35;100.00;99842.20;1694655;83;21100;-62
2022/02/16 01:49:58;;;;;;;;;;;;;;;-2.33;100.00;99835.66;1699299;84;21006;-62
2022/02/16 01:52:24;;;;;;;19.05;10.08;;;;;;;-2.29;100.00;99832.12;1684170;83;20092;-62
2022/02/16 01:54:52;;;;;;;20.92;11.95;;;;;;;-2.31;100.00;99830.16;1691977;83;21044;-62
2022/02/16 01:57:19;;;;;;;21.40;12.10;;;;;;;-2.31;100.00;99831.49;1725686;81;21037;-61
2022/02/16 01:59:48;;;;;;;23.07;12.53;;;;;;;-2.31;100.00;99832.33;1726685;81;21575;-62
2022/02/16 02:02:34;;;;;;;23.12;11.80;;;;;;;-2.30;100.00;99831.82;1728009;81;21676;-62
2022/02/16 02:05:04;;;;;;;20.27;12.03;;;;;;;-2.30;100.00;99829.16;1689166;83;21007;-62
2022/02/16 02:07:36;;;;;;;21.82;12.37;;;;;;;-2.28;100.00;99829.28;1725049;81;21096;-62
2022/02/16 02:10:05;;;;;;;25.92;13.43;;;;;;;-2.25;100.00;99829.40;1726605;81;21060;-62
2022/02/16 02:12:32;;;;;;;24.60;13.22;;;;;;;-2.25;100.00;99834.23;1728697;81;21053;-62
2022/02/16 02:14:59;;;;;;;24.82;13.72;;;;;;;-2.26;100.00;99837.91;1727526;82;21388;-62
2022/02/16 02:17:28;;;;;;;19.02;11.55;;;;;;;-2.22;100.00;99830.36;1719746;82;21600;-61
2022/02/16 02:19:54;;;;;;;22.60;13.62;;;;;;;-2.20;100.00;99822.52;1729716;82;21518;-63
2022/02/16 02:22:21;;;;;;;23.60;13.30;;;;;;;-2.16;100.00;99822.42;1729660;81;21646;-62
2022/02/16 02:24:48;;;;;;;24.65;15.00;;;;;;;-2.16;100.00;99810.42;1724949;81;21556;-62
2022/02/16 02:27:15;;;;;;;;;;;;;;;-2.18;100.00;99812.47;1737183;81;21134;-62
2022/02/16 02:29:42;;;;;;;30.75;18.87;;;;;;;-2.18;100.00;99817.80;1730116;82;20108;-62
2022/02/16 02:32:09;;;;;;;25.50;15.50;;;;;;;-2.23;100.00;99814.86;1720503;82;21082;-62
2022/02/16 02:34:36;;;;;;;24.77;14.50;;;;;;;-2.24;100.00;99825.73;1721391;81;21054;-63
2022/02/16 02:37:03;;;;;;;24.12;13.70;;;;;;;-2.26;100.00;99817.91;1686336;84;21128;-63
2022/02/16 02:39:31;;;;;;;22.52;13.08;;;;;;;-2.25;100.00;99830.23;1690944;83;21038;-63
2022/02/16 02:41:58;;;;;;;21.17;12.47;;;;;;;-2.28;100.00;99824.45;1689156;83;21082;-63
2022/02/16 02:44:25;;;;;;;;;;;;;;;-2.34;100.00;99831.37;1724453;82;21145;-63
2022/02/16 02:46:53;;;;;;;22.20;13.08;;;;;;;-2.38;100.00;99818.08;1723146;81;20136;-63
2022/02/16 02:49:21;;;;;;;25.95;13.83;;;;;;;-2.47;100.00;99815.69;1724582;81;21120;-63
2022/02/16 02:51:48;;;;;;;25.82;14.85;;;;;;;-2.51;100.00;99808.06;1719823;81;21016;-63
2022/02/16 02:54:15;;;;;;;28.25;16.42;;;;;;;-2.53;100.00;99807.94;1686841;85;21067;-63
2022/02/16 02:56:42;;;;;;;29.80;17.02;;;;;;;-2.55;100.00;99817.97;1691454;84;20988;-63
2022/02/16 02:59:09;;;;;;;26.75;17.10;;;;;;;-2.58;100.00;99819.15;1698638;84;21563;-62
2022/02/16 03:01:40;;;;;;;26.97;15.15;;;;;;;-2.61;100.00;99812.86;1669907;83;20992;-63
2022/02/16 03:04:07;;;;;;;26.25;14.28;;;;;;;-2.64;100.00;99802.58;1671012;84;20988;-63
2022/02/16 03:06:34;;;;;;;23.07;13.48;;;;;;;-2.63;100.00;99808.73;1690663;83;20976;-63
2022/02/16 03:09:00;;;;;;;22.75;13.32;;;;;;;-2.64;100.00;99815.91;1677428;85;21007;-63
2022/02/16 03:11:27;;;;;;;22.80;12.98;;;;;;;-2.63;100.00;99805.57;1680028;85;21013;-63
2022/02/16 03:13:54;;;;;;;25.37;13.75;;;;;;;-2.59;100.00;99795.37;1679955;85;21094;-63
2022/02/16 03:16:25;;;;;;;25.43;14.60;;;;;;;-2.57;100.00;99793.33;1681730;84;21093;-63
2022/02/16 03:18:51;;;;;;;;;;;;;;;-2.53;100.00;99797.28;1677396;84;21126;-63
2022/02/16 03:21:18;;;;;;;30.77;15.65;;;;;;;-2.53;100.00;99797.28;1677443;84;20120;-63
2022/02/16 03:23:45;;;;;;;24.75;13.70;;;;;;;-2.47;100.00;99797.03;1677999;84;21061;-63
2022/02/16 03:26:12;;;;;;;29.92;15.85;;;;;;;-2.40;100.00;99792.60;1669168;84;21018;-63
2022/02/16 03:28:38;;;;;;;28.32;14.55;;;;;;;-2.34;100.00;99787.87;1674460;85;21048;-63
2022/02/16 03:31:13;;;;;;;25.48;14.98;;;;;;;-2.23;100.00;99787.39;1673978;85;21067;-64
2022/02/16 03:33:40;;;;;;;22.20;13.08;;;;;;;-2.13;100.00;99780.73;1690593;83;21612;-63
2022/02/16 03:36:07;;;;;;;22.48;13.05;;;;;;;-2.04;100.00;99779.59;1675607;84;21631;-63
2022/02/16 03:38:34;;;;;;;23.95;13.13;;;;;;;-1.97;100.00;99783.65;1674044;84;21585;-63
2022/02/16 03:41:00;;;;;;;22.45;12.40;;;;;;;-1.88;100.00;99783.03;1670939;84;21528;-63
2022/02/16 03:43:27;;;;;;;26.40;13.98;;;;;;;-1.82;100.00;99783.59;1679033;84;21655;-63
2022/02/16 03:45:54;;;;;;;22.75;13.83;;;;;;;-1.74;100.00;99787.48;1674862;85;21656;-64
2022/02/16 03:48:22;;;;;;;23.30;13.32;;;;;;;-1.68;100.00;99782.20;1675597;84;21089;-64
2022/02/16 03:50:48;;;;;;;23.32;14.18;;;;;;;-1.60;100.00;99795.41;1682716;84;21564;-62
2022/02/16 03:53:17;;;;;;;25.23;15.05;;;;;;;-1.55;100.00;99788.14;1677097;84;21095;-62
2022/02/16 03:55:44;;;;;;;25.57;14.85;;;;;;;-1.41;100.00;99789.07;1670682;85;21138;-62
2022/02/16 03:58:10;;;;;;;24.67;15.80;;;;;;;-1.36;100.00;99785.33;1657648;85;21138;-62
2022/02/16 04:00:37;;;;;;;25.82;15.58;;;;;;;-1.31;100.00;99785.05;1659293;85;21026;-62
2022/02/16 04:03:08;;;;;;;28.57;15.90;;;;;;;-1.31;100.00;99778.37;1676975;83;21107;-63
2022/02/16 04:05:36;;;;;;;23.60;14.25;;;;;;;-1.27;100.00;99774.80;1710337;82;21025;-63
2022/02/16 04:08:04;;;;;;;24.10;14.65;;;;;;;-1.26;100.00;99769.27;1716746;82;21114;-63
2022/02/16 04:10:31;;;;;;;24.25;15.58;;;;;;;-1.21;100.00;99772.20;1727620;82;21036;-63
2022/02/16 04:12:59;;;;;;;22.52;13.80;;;;;;;-1.20;100.00;99773.00;1715910;82;21079;-63
2022/02/16 04:15:25;;;;;;;;;;;;;;;-1.14;100.00;99776.25;1718222;82;21401;-63
2022/02/16 04:17:53;;;;;;;22.77;14.60;;;;;;;-1.05;100.00;99777.73;1714133;82;20099;-63
2022/02/16 04:20:21;;;;;;;;;;;;;;;-0.97;100.00;99767.41;1687499;83;21071;-61
2022/02/16 04:22:49;;;;;;;23.12;13.90;;;;;;;-0.96;100.00;99775.23;1676897;83;20144;-62
2022/02/16 04:25:17;;;;;;;23.95;14.28;;;;;;;-0.95;100.00;99779.53;1705799;82;21122;-62
2022/02/16 04:27:45;;;;;;;23.77;14.80;;;;;;;-0.90;100.00;99780.30;1714462;82;21966;-61
2022/02/16 04:30:12;;;;;;;18.12;12.30;;;;;;;-0.91;100.00;99772.78;1676275;83;21050;-62
2022/02/16 04:32:39;;;;;;;21.55;14.05;;;;;;;-0.84;100.00;99774.15;1682271;83;21416;-62
2022/02/16 04:35:07;;;;;;;;;;;;;;;-0.75;100.00;99774.31;1677515;83;21091;-62
2022/02/16 04:37:33;;;;;;;;;;;;;;;-0.66;100.00;99772.61;1650878;87;20138;-62
2022/02/16 04:40:00;;;;;;;23.38;13.98;;;;;;;-0.65;100.00;99765.42;1666965;85;20140;-63
2022/02/16 04:42:27;;;;;;;24.45;14.00;;;;;;;-0.73;100.00;99768.25;1675460;83;21150;-62
2022/02/16 04:44:54;;;;;;;22.55;13.95;;;;;;;-0.69;100.00;99770.34;1678569;83;21077;-62
2022/02/16 04:47:22;;;;;;;24.98;15.03;;;;;;;-0.60;100.00;99776.33;1718559;82;21051;-62
2022/02/16 04:49:49;;;;;;;23.80;15.05;;;;;;;-0.59;100.00;99769.45;1682988;83;21597;-63
2022/02/16 04:52:16;;;;;;;21.75;14.10;;;;;;;-0.58;100.00;99759.08;1682768;83;21652;-63
2022/02/16 04:54:42;;;;;;;25.15;15.10;;;;;;;-0.46;100.00;99769.20;1715241;82;21990;-62
2022/02/16 04:57:09;;;;;;;25.15;14.28;;;;;;;-0.37;100.00;99768.00;1681440;83;21662;-63
2022/02/16 04:59:40;;;;;;;27.62;15.58;;;;;;;-0.35;100.00;99777.45;1715721;82;20991;-63
2022/02/16 05:02:07;;;;;;;27.25;15.45;;;;;;;-0.37;100.00;99778.19;1672588;83;21046;-63
2022/02/16 05:04:33;;;;;;;;;;;;;;;-0.35;100.00;99776.12;1682251;83;21061;-62
2022/02/16 05:07:00;;;;;;;22.73;14.43;;;;;;;-0.25;100.00;99775.77;1667731;85;20136;-63
2022/02/16 05:09:26;;;;;;;27.95;16.65;;;;;;;-0.30;100.00;99779.03;1680965;83;21058;-63
2022/02/16 05:11:53;;;;;;;24.05;15.68;;;;;;;-0.31;100.00;99769.86;1680424;85;21133;-62
2022/02/16 05:14:21;;;;;;;24.23;15.72;;;;;;;-0.20;100.00;99771.95;1720351;82;21011;-63
2022/02/16 05:16:49;;;;;;;26.68;16.80;;;;;;;-0.13;100.00;99760.25;1679821;84;21097;-63
2022/02/16 05:19:16;;;;;;;27.95;17.77;;;;;;;-0.18;100.00;99761.89;1717496;82;21014;-62
2022/02/16 05:21:45;;;;;;;25.75;15.70;;;;;;;-0.16;100.00;99770.02;1714944;82;21507;-63
2022/02/16 05:24:13;;;;;;;23.98;15.15;;;;;;;-0.09;100.00;99778.89;1677856;85;21057;-61
2022/02/16 05:26:42;;;;;;;25.05;15.60;;;;;;;-0.09;100.00;99786.92;1724342;82;21081;-61
2022/02/16 05:29:09;;;;;;;21.30;14.40;;;;;;;-0.07;100.00;99789.38;1718681;82;21350;-61
2022/02/16 05:31:37;;;;;;;25.05;15.28;;;;;;;0.03;100.00;99783.66;1714320;82;21055;-61
2022/02/16 05:34:04;;;;;;;29.12;15.98;;;;;;;0.11;100.00;99790.17;1716698;82;21053;-61
2022/02/16 05:36:33;;;;;;;25.27;15.45;;;;;;;0.07;100.00;99784.39;1713774;82;21541;-61
2022/02/16 05:39:01;;;;;;;24.12;16.12;;;;;;;0.04;100.00;99787.99;1712295;82;21020;-61
2022/02/16 05:41:29;;;;;;;21.52;13.62;;;;;;;0.10;100.00;99790.67;1717052;83;21061;-61
2022/02/16 05:43:57;;;;;;;27.42;17.15;;;;;;;0.15;100.00;99785.52;1716063;82;21049;-62
2022/02/16 05:46:24;;;;;;;27.62;16.85;;;;;;;0.10;100.00;99774.61;1712410;83;21047;-62
2022/02/16 05:48:51;;;;;;;23.00;14.95;;;;;;;0.09;100.00;99776.97;1682090;84;21077;-64
2022/02/16 05:51:18;;;;;;;23.83;15.03;;;;;;;0.15;100.00;99785.52;1682491;85;21074;-63
2022/02/16 05:53:44;;;;;;;26.42;16.27;;;;;;;0.17;100.00;99778.13;1681292;83;21118;-63
2022/02/16 05:56:11;;;;;;;26.70;14.47;;;;;;;0.05;100.00;99765.53;1691094;84;21067;-63
2022/02/16 05:58:38;;;;;;;25.17;14.85;;;;;;;0.19;100.00;99780.59;1677378;84;21091;-62
2022/02/16 06:01:05;;;;;;;23.15;15.05;;;;;;;0.27;100.00;99781.23;1677590;85;21095;-65
2022/02/16 06:03:34;;;;;;;26.27;15.40;;;;;;;0.26;100.00;99778.23;1712690;82;21573;-61
2022/02/16 06:06:01;;;;;;;21.02;14.05;;;;;;;0.26;100.00;99779.57;1715246;82;21500;-62
2022/02/16 06:08:28;;;;;;;;;;;;;;;0.38;100.00;99781.13;1732068;82;21103;-62
2022/02/16 06:10:57;;;;;;;28.25;16.73;;;;;;;0.38;100.00;99773.93;1723929;82;20128;-62
2022/02/16 06:13:23;;;;;;;25.95;15.85;;;;;;;0.25;100.00;99773.09;1712948;82;21059;-62
2022/02/16 06:15:52;;;;;;;24.70;15.43;;;;;;;0.27;100.00;99774.53;1714919;82;21061;-61
2022/02/16 06:18:19;;;;;;;25.77;15.40;;;;;;;0.37;100.00;99770.94;1716508;82;21083;-60
2022/02/16 06:20:46;;;;;;;25.88;16.23;;;;;;;0.38;100.00;99761.88;1717211;82;21422;-60
2022/02/16 06:23:14;;;;;;;27.75;16.00;;;;;;;0.32;100.00;99763.22;1716624;82;21031;-60
2022/02/16 06:25:42;;;;;;;31.17;17.40;;;;;;;0.36;100.00;99761.24;1716503;82;21617;-61
2022/02/16 06:28:08;;;;;;;27.93;16.97;;;;;;;0.40;100.00;99769.18;1688319;83;21598;-62
2022/02/16 06:30:36;;;;;;;27.05;17.32;;;;;;;0.32;100.00;99754.64;1720157;82;21554;-61
2022/02/16 06:33:04;;;;;;;27.93;16.62;;;;;;;0.30;100.00;99762.07;1736577;81;21068;-62
2022/02/16 06:35:31;;;;;;;28.55;16.07;;;;;;;0.38;100.00;99751.67;1737207;82;21024;-61
2022/02/16 06:37:59;;;;;;;26.62;16.95;;;;;;;0.34;100.00;99743.74;1735180;81;21075;-61
2022/02/16 06:40:27;;;;;;;29.02;17.02;;;;;;;0.29;100.00;99750.21;1683021;85;21057;-61
2022/02/16 06:42:55;;;;;;;24.98;15.90;;;;;;;0.33;100.00;99745.59;1717081;83;21071;-61
2022/02/16 06:45:23;;;;;;;29.35;17.55;;;;;;;0.37;100.00;99746.00;1682760;85;21073;-61
2022/02/16 06:47:50;;;;;;;30.75;17.92;;;;;;;0.31;100.00;99743.64;1682385;85;21094;-61
2022/02/16 06:50:17;;;;;;;28.65;16.93;;;;;;;0.30;100.00;99740.65;1696576;84;21516;-62
2022/02/16 06:52:45;;;;;;;31.97;18.65;;;;;;;0.37;100.00;99741.48;1698187;83;21120;-61
2022/02/16 06:55:12;;;;;;;33.98;18.52;;;;;;;0.35;100.00;99740.88;1700281;84;20995;-62
2022/02/16 06:57:40;;;;;;;33.42;17.92;;;;;;;0.29;100.00;99740.33;1703529;83;21101;-61
2022/02/16 07:00:10;;;;;;;31.02;19.05;;;;;;;0.32;100.00;99739.12;1695114;84;21022;-62
2022/02/16 07:02:47;;;;;;;27.73;18.50;;;;;;;0.33;100.00;99738.89;1632621;85;21120;-62
2022/02/16 07:05:15;;;;;;;31.62;19.07;;;;;;;0.27;100.00;99746.93;1677844;85;21015;-60
2022/02/16 07:07:42;;;;;;;32.85;18.65;;;;;;;0.26;100.00;99736.73;1677533;85;21075;-60
2022/02/16 07:10:09;;;;;;;29.70;18.85;;;;;;;0.30;100.00;99737.14;1707799;84;21509;-60
2022/02/16 07:12:38;;;;;;;29.57;18.57;;;;;;;0.29;100.00;99737.66;1684177;84;21015;-60
2022/02/16 07:15:11;;;;;;;29.90;18.80;;;;;;;0.21;100.00;99737.05;1707671;84;21450;-61
2022/02/16 07:17:34;;;;;;;28.80;16.57;;;;;;;0.25;100.00;99740.97;1706697;82;21122;-61
2022/02/16 07:20:02;;;;;;;28.83;18.35;;;;;;;0.28;100.00;99733.35;1707810;84;21450;-60
2022/02/16 07:22:31;;;;;;;27.95;18.40;;;;;;;0.23;100.00;99726.44;1684169;84;21058;-61
2022/02/16 07:24:59;;;;;;;31.97;19.48;;;;;;;0.24;100.00;99727.27;1707541;84;21028;-60
2022/02/16 07:27:26;;;;;;;29.07;17.77;;;;;;;0.32;100.00;99719.84;1702726;82;21006;-61
2022/02/16 07:29:53;;;;;;;30.23;19.05;;;;;;;0.32;100.00;99719.84;1695404;84;21093;-60
2022/02/16 07:32:20;;;;;;;25.12;16.52;;;;;;;0.29;100.00;99720.77;1695176;84;21066;-61
2022/02/16 07:34:48;;;;;;;29.40;17.80;;;;;;;0.32;100.00;99719.03;1670322;84;21058;-60
2022/02/16 07:37:15;;;;;;;29.50;19.98;;;;;;;0.34;100.00;99715.11;1681019;84;21007;-59
2022/02/16 07:39:43;;;;;;;30.97;19.27;;;;;;;0.32;100.00;99713.69;1707586;84;21050;-61
2022/02/16 07:42:10;;;;;;;26.77;17.40;;;;;;;0.30;100.00;99713.05;1707127;82;21619;-61
2022/02/16 07:44:38;;;;;;;25.62;16.80;;;;;;;0.36;100.00;99706.34;1646993;85;21061;-60
2022/02/16 07:47:10;;;;;;;26.37;17.80;;;;;;;0.43;100.00;99707.17;1681203;84;21676;-59
2022/02/16 07:49:37;;;;;;;24.80;16.52;;;;;;;0.40;100.00;99704.08;1693848;83;20982;-59
2022/02/16 07:52:11;;;;;;;28.45;16.75;;;;;;;0.39;100.00;99705.13;1654639;84;21611;-59
2022/02/16 07:54:39;;;;;;;26.07;16.87;;;;;;;0.47;100.00;99717.78;1672683;85;21118;-59
2022/02/16 07:57:08;;;;;;;27.35;17.35;;;;;;;0.46;100.00;99710.77;1657079;86;21048;-60
2022/02/16 07:59:35;;;;;;;24.75;15.48;;;;;;;0.44;100.00;99707.99;1656186;86;21072;-62
2022/02/16 08:02:05;;;;;;;27.22;17.48;;;;;;;0.45;100.00;99707.80;1661148;85;21132;-61
2022/02/16 08:04:32;;;;;;;23.47;15.72;;;;;;;0.54;100.00;99708.91;1650578;87;21047;-61
2022/02/16 08:07:04;;;;;;;27.15;16.85;;;;;;;0.59;100.00;99705.09;1660704;85;21140;-63
2022/02/16 08:09:31;;;;;;;28.35;16.77;;;;;;;0.57;100.00;99697.80;1687654;84;20999;-62
2022/02/16 08:11:58;;;;;;;27.13;17.27;;;;;;;0.65;100.00;99697.56;1722391;83;21511;-62
2022/02/16 08:14:26;;;;;;;29.77;17.73;;;;;;;0.71;100.00;99697.55;1703361;83;21511;-61
2022/02/16 08:17:00;;;;;;;29.18;16.07;;;;;;;0.64;100.00;99687.36;1722547;82;21114;-61
2022/02/16 08:19:23;;;;;;;29.05;17.35;;;;;;;0.63;100.00;99688.92;1722063;83;21035;-62
2022/02/16 08:21:55;;;;;;;27.25;17.52;;;;;;;0.69;100.00;99682.72;1722676;82;21554;-61
2022/02/16 08:24:21;;;;;;;29.52;18.20;;;;;;;0.69;100.00;99681.37;1697013;82;20991;-61
2022/02/16 08:26:49;;;;;;;25.75;16.85;;;;;;;0.63;100.00;99683.05;1655556;85;21098;-61
2022/02/16 08:29:19;;;;;;;26.42;17.87;;;;;;;0.74;100.00;99682.42;1696636;83;21031;-62
2022/02/16 08:31:46;;;;;;;28.62;17.67;;;;;;;0.78;100.00;99680.94;1685322;85;21050;-61
2022/02/16 08:34:15;;;;;;;27.85;18.15;;;;;;;0.79;100.00;99685.78;1687439;84;21058;-63
2022/02/16 08:36:55;;;;;;;26.87;16.82;;;;;;;0.86;100.00;99680.72;1684544;84;21047;-61
2022/02/16 08:39:17;;;;;;;28.55;18.32;;;;;;;0.92;100.00;99685.23;1721583;83;21078;-60
2022/02/16 08:41:44;;;;;;;30.57;18.67;;;;;;;0.91;100.00;99677.41;1688908;83;21038;-59
2022/02/16 08:44:10;;;;;;;30.05;18.85;;;;;;;0.85;100.00;99683.63;1694327;84;21098;-60
2022/02/16 08:46:37;;;;;;;27.32;16.77;;;;;;;0.84;100.00;99680.13;1685334;84;21018;-59
2022/02/16 08:49:03;;;;;;;;;;;;;;;0.87;100.00;99677.53;1687048;84;21079;-59
2022/02/16 08:51:30;;;;;;;29.70;18.70;;;;;;;0.85;100.00;99676.92;1652140;85;20139;-61
2022/02/16 08:53:58;;;;;;;32.05;19.40;;;;;;;0.73;100.00;99679.42;1688019;84;21043;-61
2022/02/16 08:56:25;;;;;;;31.57;19.60;;;;;;;0.80;100.00;99671.36;1731165;81;21545;-60
2022/02/16 08:58:52;;;;;;;36.35;19.92;;;;;;;0.80;100.00;99672.19;1736652;81;21044;-61
2022/02/16 09:01:18;;;;;;;33.92;19.65;;;;;;;0.72;100.00;99683.63;1737143;82;21027;-60
2022/02/16 09:03:45;;;;;;;31.82;19.77;;;;;;;0.72;100.00;99682.30;1734948;81;21127;-60
2022/02/16 09:06:11;;;;;;;;;;;;;;;0.80;100.00;99690.12;1705929;83;21083;-60
2022/02/16 09:08:39;;;;;;;35.20;20.95;;;;;;;0.86;100.00;99687.93;1711977;82;20160;-60
2022/02/16 09:11:05;;;;;;;32.10;20.15;;;;;;;0.77;100.00;99689.20;1680013;84;21047;-60
2022/02/16 09:13:34;;;;;;;33.63;19.57;;;;;;;0.77;100.00;99694.05;1678695;85;21024;-61
2022/02/16 09:16:00;;;;;;;34.63;20.50;;;;;;;0.82;100.00;99695.56;1717837;82;21051;-61
2022/02/16 09:18:27;;;;;;;33.28;20.45;;;;;;;0.87;100.00;99672.16;1677916;84;21485;-60
2022/02/16 09:20:54;;;;;;;32.23;20.08;;;;;;;0.87;100.00;99673.00;1713805;82;20959;-61
2022/02/16 09:23:21;;;;;;;34.03;21.37;;;;;;;1.03;100.00;99660.97;1680325;85;21012;-60
2022/02/16 09:25:47;;;;;;;30.77;19.85;;;;;;;1.03;100.00;99660.97;1707818;83;21533;-60
2022/02/16 09:28:15;;;;;;;36.00;22.02;;;;;;;1.02;100.00;99671.92;1678266;84;21107;-60
2022/02/16 09:30:42;;;;;;;36.40;22.35;;;;;;;1.00;100.00;99671.60;1714966;83;21016;-61
2022/02/16 09:33:08;;;;;;;33.18;20.08;;;;;;;1.08;100.00;99663.84;1679536;85;21038;-60
2022/02/16 09:35:36;;;;;;;33.90;21.12;;;;;;;1.23;100.00;99656.36;1711043;84;21099;-61
2022/02/16 09:38:02;;;;;;;;;;;;;;;1.34;100.00;99646.83;1680156;84;21122;-60
2022/02/16 09:40:30;;;;;;;38.48;22.00;;;;;;;1.30;100.00;99638.38;1669082;86;20418;-61
2022/02/16 09:43:01;;;;;;;37.53;21.30;;;;;;;1.18;100.00;99640.08;1716887;82;21574;-60
2022/02/16 09:45:31;;;;;;;34.43;20.68;;;;;;;1.20;100.00;99640.70;1716748;83;21031;-60
2022/02/16 09:47:57;;;;;;;36.58;22.80;;;;;;;1.25;100.00;99635.51;1694779;83;21039;-61
2022/02/16 09:50:24;;;;;;;35.43;21.37;;;;;;;1.26;100.00;99640.36;1699099;84;21593;-61
2022/02/16 09:52:50;;;;;;;47.53;28.55;;;;;;;1.31;100.00;99633.84;1699124;83;21178;-60
2022/02/16 09:55:17;;;;;;;58.75;35.40;;;;;;;1.40;100.00;99624.50;1687138;85;21035;-61
2022/02/16 09:57:43;;;;;;;79.65;46.05;;;;;;;1.38;100.00;99611.84;1700570;83;21050;-60
2022/02/16 10:00:12;;;;;;;55.73;32.35;;;;;;;1.36;100.00;99612.04;1695448;84;21409;-61
2022/02/16 10:02:40;;;;;;;38.00;23.75;;;;;;;1.41;100.00;99610.89;1695113;84;21033;-61
2022/02/16 10:05:08;;;;;;;35.63;21.48;;;;;;;1.47;100.00;99603.82;1695299;84;21011;-61
2022/02/16 10:07:38;;;;;;;38.45;22.98;;;;;;;1.42;100.00;99609.00;1706813;82;21050;-61
2022/02/16 10:10:16;;;;;;;36.38;22.32;;;;;;;1.30;100.00;99598.16;1706813;84;20987;-61
2022/02/16 10:12:47;;;;;;;34.55;20.37;;;;;;;1.37;100.00;99583.36;1707236;84;21086;-61
2022/02/16 10:15:17;;;;;;;32.73;20.57;;;;;;;1.47;100.00;99577.00;1707538;84;20990;-61
2022/02/16 10:17:45;;;;;;;45.20;25.02;;;;;;;1.39;100.00;99578.59;1696974;84;21034;-61
2022/02/16 10:20:14;;;;;;;44.58;25.30;;;;;;;1.38;100.00;99579.11;1695450;84;20970;-61
2022/02/16 10:22:46;;;;;;;39.40;24.00;;;;;;;1.49;100.00;99572.22;1696068;84;21053;-61
2022/02/16 10:25:30;;;;;;;50.35;27.95;;;;;;;1.66;100.00;99579.25;1695402;84;20967;-61
2022/02/16 10:28:15;;;;;;;34.53;21.15;;;;;;;1.60;100.00;99555.43;1695045;84;20999;-61
2022/02/16 10:31:02;;;;;;;30.52;18.00;;;;;;;1.63;100.00;99568.41;1695009;84;21013;-60
2022/02/16 10:33:45;;;;;;;29.23;18.75;;;;;;;1.59;100.00;99569.91;1697716;84;21138;-60
2022/02/16 10:36:16;;;;;;;36.85;22.10;;;;;;;1.59;100.00;99557.83;1703568;84;21541;-61
2022/02/16 10:38:57;;;;;;;33.65;19.75;;;;;;;1.54;100.00;99551.46;1695031;84;21086;-61
2022/02/16 10:41:30;;;;;;;33.23;21.12;;;;;;;1.49;100.00;99542.72;1703799;84;21105;-60
2022/02/16 10:43:58;;;;;;;29.30;18.65;;;;;;;1.47;100.00;99546.97;1707702;84;20994;-62
2022/02/16 10:46:28;;;;;;;31.97;21.17;;;;;;;1.47;100.00;99551.00;1704438;84;21038;-61
2022/02/16 10:49:12;;;;;;;31.48;19.77;;;;;;;1.45;100.00;99546.90;1702504;84;21110;-61
2022/02/16 10:51:40;;;;;;;31.77;20.92;;;;;;;1.43;100.00;99543.59;1707362;84;21537;-58
2022/02/16 10:54:19;;;;;;;36.60;22.45;;;;;;;1.51;100.00;99558.09;1707662;84;21549;-59
2022/02/16 10:56:48;;;;;;;32.25;21.50;;;;;;;1.55;100.00;99552.59;1707278;84;21042;-60
2022/02/16 10:59:15;;;;;;;37.35;22.00;;;;;;;1.48;100.00;99550.48;1700566;84;22442;-60
2022/02/16 11:01:42;;;;;;;;;;;;;;;1.46;100.00;99552.03;1697740;84;21057;-59
2022/02/16 11:04:13;;;;;;;49.48;27.27;;;;;;;1.58;100.00;99549.47;1677865;85;20135;-60
2022/02/16 11:06:47;;;;;;;58.38;31.12;;;;;;;1.72;100.00;99547.50;1677640;85;21682;-60
2022/02/16 11:09:25;;;;;;;47.33;27.27;;;;;;;1.73;100.00;99541.10;1677810;85;21026;-59
2022/02/16 11:11:55;;;;;;;54.75;30.35;;;;;;;1.71;100.00;99539.14;1677380;85;21152;-60
2022/02/16 11:14:25;;;;;;;41.65;25.43;;;;;;;1.66;100.00;99531.77;1677804;85;21043;-60
2022/02/16 11:16:53;;;;;;;38.83;23.57;;;;;;;1.74;100.00;99523.94;1677627;85;21104;-61
2022/02/16 11:19:32;;;;;;;34.67;22.45;;;;;;;1.80;100.00;99530.62;1677954;85;21001;-60
2022/02/16 11:22:08;;;;;;;47.93;27.50;;;;;;;1.84;100.00;99521.05;1677878;85;21038;-60